sensor_id;sensor_type;location;lat;lon;timestamp;temperature;humidity
31443;SHT31;18065;55.876;9.830;2022-10-15T00:01:36;23.28;54.39
31443;SHT31;18065;55.876;9.830;2022-10-15T00:04:05;23.27;54.34
31443;SHT31;18065;55.876;9.830;2022-10-15T00:06:34;23.28;54.36
31443;SHT31;18065;55.876;9.830;2022-10-15T00:09:03;23.28;54.34
31443;SHT31;18065;55.876;9.830;2022-10-15T00:11:32;23.27;54.34
31443;SHT31;18065;55.876;9.830;2022-10-15T00:14:00;23.27;54.28
31443;SHT31;18065;55.876;9.830;2022-10-15T00:16:29;23.30;54.28
31443;SHT31;18065;55.876;9.830;2022-10-15T00:19:00;23.27;54.35
31443;SHT31;18065;55.876;9.830;2022-10-15T00:21:29;23.27;54.32
31443;SHT31;18065;55.876;9.830;2022-10-15T00:23:58;23.28;54.23
31443;SHT31;18065;55.876;9.830;2022-10-15T00:26:27;23.27;54.25
31443;SHT31;18065;55.876;9.830;2022-10-15T00:28:59;23.30;54.24
31443;SHT31;18065;55.876;9.830;2022-10-15T00:31:29;23.27;54.22
31443;SHT31;18065;55.876;9.830;2022-10-15T00:34:01;23.28;54.22
31443;SHT31;18065;55.876;9.830;2022-10-15T00:36:32;23.28;54.22
31443;SHT31;18065;55.876;9.830;2022-10-15T00:39:02;23.30;54.19
31443;SHT31;18065;55.876;9.830;2022-10-15T00:41:33;23.26;54.20
31443;SHT31;18065;55.876;9.830;2022-10-15T00:47:13;23.28;54.20
31443;SHT31;18065;55.876;9.830;2022-10-15T00:49:48;23.27;54.19
31443;SHT31;18065;55.876;9.830;2022-10-15T00:52:22;23.26;54.15
31443;SHT31;18065;55.876;9.830;2022-10-15T00:54:54;23.28;54.14
31443;SHT31;18065;55.876;9.830;2022-10-15T00:57:24;23.27;54.12
31443;SHT31;18065;55.876;9.830;2022-10-15T00:59:57;23.27;54.15
31443;SHT31;18065;55.876;9.830;2022-10-15T01:02:26;23.27;54.05
31443;SHT31;18065;55.876;9.830;2022-10-15T01:04:58;23.27;54.10
31443;SHT31;18065;55.876;9.830;2022-10-15T01:07:26;23.27;54.07
31443;SHT31;18065;55.876;9.830;2022-10-15T01:09:55;23.26;54.05
31443;SHT31;18065;55.876;9.830;2022-10-15T01:12:31;23.27;54.10
31443;SHT31;18065;55.876;9.830;2022-10-15T01:15:08;23.28;54.10
31443;SHT31;18065;55.876;9.830;2022-10-15T01:17:46;23.27;54.06
31443;SHT31;18065;55.876;9.830;2022-10-15T01:26:44;23.27;54.04
31443;SHT31;18065;55.876;9.830;2022-10-15T01:29:26;23.27;54.03
31443;SHT31;18065;55.876;9.830;2022-10-15T01:32:06;23.24;54.03
31443;SHT31;18065;55.876;9.830;2022-10-15T01:34:41;23.27;54.02
31443;SHT31;18065;55.876;9.830;2022-10-15T01:37:18;23.27;54.03
31443;SHT31;18065;55.876;9.830;2022-10-15T01:39:51;23.26;54.00
31443;SHT31;18065;55.876;9.830;2022-10-15T01:42:28;23.27;53.99
31443;SHT31;18065;55.876;9.830;2022-10-15T01:45:00;23.23;53.99
31443;SHT31;18065;55.876;9.830;2022-10-15T01:47:36;23.26;53.95
31443;SHT31;18065;55.876;9.830;2022-10-15T01:50:09;23.26;53.94
31443;SHT31;18065;55.876;9.830;2022-10-15T01:52:39;23.24;53.94
31443;SHT31;18065;55.876;9.830;2022-10-15T01:55:11;23.24;53.91
31443;SHT31;18065;55.876;9.830;2022-10-15T01:57:42;23.27;53.91
31443;SHT31;18065;55.876;9.830;2022-10-15T02:00:12;23.26;53.94
31443;SHT31;18065;55.876;9.830;2022-10-15T02:02:43;23.26;53.91
31443;SHT31;18065;55.876;9.830;2022-10-15T02:05:16;23.27;53.91
31443;SHT31;18065;55.876;9.830;2022-10-15T02:07:54;23.28;53.93
31443;SHT31;18065;55.876;9.830;2022-10-15T02:10:27;23.27;53.89
31443;SHT31;18065;55.876;9.830;2022-10-15T02:13:04;23.26;53.88
31443;SHT31;18065;55.876;9.830;2022-10-15T02:15:40;23.26;53.88
31443;SHT31;18065;55.876;9.830;2022-10-15T02:18:19;23.24;53.90
31443;SHT31;18065;55.876;9.830;2022-10-15T02:20:53;23.27;53.86
31443;SHT31;18065;55.876;9.830;2022-10-15T02:23:26;23.27;53.82
31443;SHT31;18065;55.876;9.830;2022-10-15T02:25:56;23.24;53.81
31443;SHT31;18065;55.876;9.830;2022-10-15T02:28:26;23.26;53.85
31443;SHT31;18065;55.876;9.830;2022-10-15T02:30:57;23.26;53.85
31443;SHT31;18065;55.876;9.830;2022-10-15T02:33:28;23.26;53.82
31443;SHT31;18065;55.876;9.830;2022-10-15T02:35:58;23.28;53.79
31443;SHT31;18065;55.876;9.830;2022-10-15T02:38:29;23.27;53.81
31443;SHT31;18065;55.876;9.830;2022-10-15T02:41:00;23.26;53.79
31443;SHT31;18065;55.876;9.830;2022-10-15T02:43:30;23.27;53.77
31443;SHT31;18065;55.876;9.830;2022-10-15T02:45:58;23.26;53.73
31443;SHT31;18065;55.876;9.830;2022-10-15T02:48:30;23.27;53.84
31443;SHT31;18065;55.876;9.830;2022-10-15T02:50:58;23.26;53.76
31443;SHT31;18065;55.876;9.830;2022-10-15T02:53:27;23.27;53.79
31443;SHT31;18065;55.876;9.830;2022-10-15T02:55:56;23.27;53.73
31443;SHT31;18065;55.876;9.830;2022-10-15T02:58:25;23.26;53.71
31443;SHT31;18065;55.876;9.830;2022-10-15T03:00:55;23.27;53.72
31443;SHT31;18065;55.876;9.830;2022-10-15T03:03:24;23.26;53.66
31443;SHT31;18065;55.876;9.830;2022-10-15T03:05:55;23.26;53.74
31443;SHT31;18065;55.876;9.830;2022-10-15T03:08:24;23.26;53.72
31443;SHT31;18065;55.876;9.830;2022-10-15T03:10:53;23.26;53.73
31443;SHT31;18065;55.876;9.830;2022-10-15T03:13:22;23.27;53.69
31443;SHT31;18065;55.876;9.830;2022-10-15T03:15:51;23.26;53.68
31443;SHT31;18065;55.876;9.830;2022-10-15T03:18:20;23.26;53.69
31443;SHT31;18065;55.876;9.830;2022-10-15T03:20:55;23.27;53.68
31443;SHT31;18065;55.876;9.830;2022-10-15T03:23:24;23.24;53.67
31443;SHT31;18065;55.876;9.830;2022-10-15T03:25:52;23.24;53.71
31443;SHT31;18065;55.876;9.830;2022-10-15T03:28:21;23.26;53.67
31443;SHT31;18065;55.876;9.830;2022-10-15T03:30:50;23.27;53.66
31443;SHT31;18065;55.876;9.830;2022-10-15T03:33:19;23.27;53.66
31443;SHT31;18065;55.876;9.830;2022-10-15T03:35:48;23.26;53.66
31443;SHT31;18065;55.876;9.830;2022-10-15T03:38:19;23.26;53.62
31443;SHT31;18065;55.876;9.830;2022-10-15T03:40:48;23.26;53.62
31443;SHT31;18065;55.876;9.830;2022-10-15T03:43:17;23.26;53.63
31443;SHT31;18065;55.876;9.830;2022-10-15T03:45:46;23.26;53.61
31443;SHT31;18065;55.876;9.830;2022-10-15T03:48:14;23.26;53.62
31443;SHT31;18065;55.876;9.830;2022-10-15T03:50:44;23.27;53.61
31443;SHT31;18065;55.876;9.830;2022-10-15T03:53:13;23.24;53.62
31443;SHT31;18065;55.876;9.830;2022-10-15T03:55:44;23.27;53.59
31443;SHT31;18065;55.876;9.830;2022-10-15T03:58:13;23.28;53.59
31443;SHT31;18065;55.876;9.830;2022-10-15T04:00:42;23.24;53.59
31443;SHT31;18065;55.876;9.830;2022-10-15T04:03:11;23.26;53.57
31443;SHT31;18065;55.876;9.830;2022-10-15T04:05:41;23.27;53.61
31443;SHT31;18065;55.876;9.830;2022-10-15T04:08:16;23.26;53.57
31443;SHT31;18065;55.876;9.830;2022-10-15T04:10:49;23.26;53.57
31443;SHT31;18065;55.876;9.830;2022-10-15T04:13:18;23.26;53.58
31443;SHT31;18065;55.876;9.830;2022-10-15T04:15:47;23.26;53.56
31443;SHT31;18065;55.876;9.830;2022-10-15T04:18:16;23.27;53.57
31443;SHT31;18065;55.876;9.830;2022-10-15T04:20:46;23.27;53.57
31443;SHT31;18065;55.876;9.830;2022-10-15T04:23:15;23.28;53.58
31443;SHT31;18065;55.876;9.830;2022-10-15T04:25:46;23.27;53.54
31443;SHT31;18065;55.876;9.830;2022-10-15T04:28:15;23.26;53.54
31443;SHT31;18065;55.876;9.830;2022-10-15T04:30:44;23.28;53.49
31443;SHT31;18065;55.876;9.830;2022-10-15T04:33:13;23.27;53.53
31443;SHT31;18065;55.876;9.830;2022-10-15T04:35:42;23.24;53.49
31443;SHT31;18065;55.876;9.830;2022-10-15T04:38:10;23.28;53.54
31443;SHT31;18065;55.876;9.830;2022-10-15T04:40:39;23.26;53.51
31443;SHT31;18065;55.876;9.830;2022-10-15T04:43:10;23.24;53.52
31443;SHT31;18065;55.876;9.830;2022-10-15T04:45:39;23.26;53.49
31443;SHT31;18065;55.876;9.830;2022-10-15T04:48:08;23.28;53.50
31443;SHT31;18065;55.876;9.830;2022-10-15T04:50:36;23.26;53.46
31443;SHT31;18065;55.876;9.830;2022-10-15T04:53:05;23.26;53.45
31443;SHT31;18065;55.876;9.830;2022-10-15T04:55:34;23.27;53.49
31443;SHT31;18065;55.876;9.830;2022-10-15T04:58:03;23.24;53.46
31443;SHT31;18065;55.876;9.830;2022-10-15T05:00:34;23.24;53.50
31443;SHT31;18065;55.876;9.830;2022-10-15T05:03:04;23.26;53.46
31443;SHT31;18065;55.876;9.830;2022-10-15T05:05:32;23.24;53.49
31443;SHT31;18065;55.876;9.830;2022-10-15T05:08:02;23.26;53.46
31443;SHT31;18065;55.876;9.830;2022-10-15T05:10:31;23.24;53.52
31443;SHT31;18065;55.876;9.830;2022-10-15T05:13:00;23.26;53.45
31443;SHT31;18065;55.876;9.830;2022-10-15T05:15:29;23.23;53.41
31443;SHT31;18065;55.876;9.830;2022-10-15T05:18:00;23.24;53.46
31443;SHT31;18065;55.876;9.830;2022-10-15T05:20:29;23.23;53.48
31443;SHT31;18065;55.876;9.830;2022-10-15T05:22:57;23.23;53.45
31443;SHT31;18065;55.876;9.830;2022-10-15T05:25:26;23.26;53.48
31443;SHT31;18065;55.876;9.830;2022-10-15T05:27:55;23.24;53.44
31443;SHT31;18065;55.876;9.830;2022-10-15T05:30:24;23.26;53.44
31443;SHT31;18065;55.876;9.830;2022-10-15T05:32:53;23.24;53.46
31443;SHT31;18065;55.876;9.830;2022-10-15T05:35:25;23.23;53.43
31443;SHT31;18065;55.876;9.830;2022-10-15T05:37:53;23.26;53.45
31443;SHT31;18065;55.876;9.830;2022-10-15T05:40:22;23.26;53.43
31443;SHT31;18065;55.876;9.830;2022-10-15T05:42:51;23.23;53.42
31443;SHT31;18065;55.876;9.830;2022-10-15T05:45:20;23.22;53.40
31443;SHT31;18065;55.876;9.830;2022-10-15T05:47:53;23.23;53.45
31443;SHT31;18065;55.876;9.830;2022-10-15T05:50:24;23.24;53.45
31443;SHT31;18065;55.876;9.830;2022-10-15T05:52:53;23.23;53.40
31443;SHT31;18065;55.876;9.830;2022-10-15T05:55:22;23.23;53.39
31443;SHT31;18065;55.876;9.830;2022-10-15T05:57:51;23.22;53.36
31443;SHT31;18065;55.876;9.830;2022-10-15T06:00:20;23.24;53.42
31443;SHT31;18065;55.876;9.830;2022-10-15T06:02:49;23.23;53.39
31443;SHT31;18065;55.876;9.830;2022-10-15T06:05:18;23.24;53.37
31443;SHT31;18065;55.876;9.830;2022-10-15T06:07:49;23.23;53.39
31443;SHT31;18065;55.876;9.830;2022-10-15T06:10:18;23.22;53.35
31443;SHT31;18065;55.876;9.830;2022-10-15T06:12:50;23.23;53.35
31443;SHT31;18065;55.876;9.830;2022-10-15T06:15:18;23.23;53.32
31443;SHT31;18065;55.876;9.830;2022-10-15T06:17:47;23.23;53.40
31443;SHT31;18065;55.876;9.830;2022-10-15T06:20:18;23.22;53.36
31443;SHT31;18065;55.876;9.830;2022-10-15T06:22:50;23.22;53.40
31443;SHT31;18065;55.876;9.830;2022-10-15T06:25:18;23.24;53.37
31443;SHT31;18065;55.876;9.830;2022-10-15T06:27:47;23.24;53.38
31443;SHT31;18065;55.876;9.830;2022-10-15T06:30:16;23.23;53.36
31443;SHT31;18065;55.876;9.830;2022-10-15T06:32:48;23.26;53.41
31443;SHT31;18065;55.876;9.830;2022-10-15T06:35:18;23.22;53.44
31443;SHT31;18065;55.876;9.830;2022-10-15T06:37:50;23.22;53.43
31443;SHT31;18065;55.876;9.830;2022-10-15T06:40:18;23.23;53.37
31443;SHT31;18065;55.876;9.830;2022-10-15T06:42:47;23.22;53.36
31443;SHT31;18065;55.876;9.830;2022-10-15T06:45:16;23.23;53.35
31443;SHT31;18065;55.876;9.830;2022-10-15T06:47:45;23.24;53.32
31443;SHT31;18065;55.876;9.830;2022-10-15T06:50:13;23.26;53.31
31443;SHT31;18065;55.876;9.830;2022-10-15T06:52:42;23.23;53.30
31443;SHT31;18065;55.876;9.830;2022-10-15T06:55:14;23.24;53.32
31443;SHT31;18065;55.876;9.830;2022-10-15T06:57:42;23.23;53.29
31443;SHT31;18065;55.876;9.830;2022-10-15T07:00:12;23.24;53.29
31443;SHT31;18065;55.876;9.830;2022-10-15T07:02:41;23.26;53.30
31443;SHT31;18065;55.876;9.830;2022-10-15T07:05:10;23.22;53.28
31443;SHT31;18065;55.876;9.830;2022-10-15T07:07:39;23.24;53.28
31443;SHT31;18065;55.876;9.830;2022-10-15T07:10:08;23.23;53.26
31443;SHT31;18065;55.876;9.830;2022-10-15T07:12:39;23.24;53.30
31443;SHT31;18065;55.876;9.830;2022-10-15T07:15:08;23.22;53.22
31443;SHT31;18065;55.876;9.830;2022-10-15T07:17:37;23.23;53.25
31443;SHT31;18065;55.876;9.830;2022-10-15T07:20:07;23.26;53.24
31443;SHT31;18065;55.876;9.830;2022-10-15T07:22:36;23.23;53.26
31443;SHT31;18065;55.876;9.830;2022-10-15T07:25:05;23.23;53.24
31443;SHT31;18065;55.876;9.830;2022-10-15T07:27:34;23.20;54.04
31443;SHT31;18065;55.876;9.830;2022-10-15T07:30:07;23.07;54.37
31443;SHT31;18065;55.876;9.830;2022-10-15T07:32:36;23.03;54.26
31443;SHT31;18065;55.876;9.830;2022-10-15T07:35:05;22.99;54.33
31443;SHT31;18065;55.876;9.830;2022-10-15T07:37:34;22.96;54.73
31443;SHT31;18065;55.876;9.830;2022-10-15T07:40:03;22.93;54.70
31443;SHT31;18065;55.876;9.830;2022-10-15T07:42:32;22.95;54.62
31443;SHT31;18065;55.876;9.830;2022-10-15T07:45:00;22.99;54.66
31443;SHT31;18065;55.876;9.830;2022-10-15T07:47:32;23.00;54.65
31443;SHT31;18065;55.876;9.830;2022-10-15T07:50:00;23.03;54.63
31443;SHT31;18065;55.876;9.830;2022-10-15T07:52:30;23.03;54.64
31443;SHT31;18065;55.876;9.830;2022-10-15T07:54:58;23.03;54.66
31443;SHT31;18065;55.876;9.830;2022-10-15T07:57:27;23.03;54.66
31443;SHT31;18065;55.876;9.830;2022-10-15T07:59:56;23.03;54.69
31443;SHT31;18065;55.876;9.830;2022-10-15T08:02:24;23.03;54.69
31443;SHT31;18065;55.876;9.830;2022-10-15T08:04:55;23.02;54.69
31443;SHT31;18065;55.876;9.830;2022-10-15T08:07:24;23.02;54.70
31443;SHT31;18065;55.876;9.830;2022-10-15T08:09:53;23.03;54.66
31443;SHT31;18065;55.876;9.830;2022-10-15T08:12:22;23.03;54.70
31443;SHT31;18065;55.876;9.830;2022-10-15T08:14:50;23.00;54.68
31443;SHT31;18065;55.876;9.830;2022-10-15T08:17:19;23.04;54.64
31443;SHT31;18065;55.876;9.830;2022-10-15T08:19:48;23.02;54.61
31443;SHT31;18065;55.876;9.830;2022-10-15T08:22:19;23.03;54.66
31443;SHT31;18065;55.876;9.830;2022-10-15T08:24:47;23.02;54.69
31443;SHT31;18065;55.876;9.830;2022-10-15T08:27:17;23.03;54.68
31443;SHT31;18065;55.876;9.830;2022-10-15T08:29:45;23.03;54.53
31443;SHT31;18065;55.876;9.830;2022-10-15T08:32:14;23.02;54.56
31443;SHT31;18065;55.876;9.830;2022-10-15T08:34:43;23.06;54.47
31443;SHT31;18065;55.876;9.830;2022-10-15T08:37:11;23.06;54.58
31443;SHT31;18065;55.876;9.830;2022-10-15T08:39:43;23.03;54.48
31443;SHT31;18065;55.876;9.830;2022-10-15T08:42:16;23.04;54.51
31443;SHT31;18065;55.876;9.830;2022-10-15T08:44:50;23.04;54.58
31443;SHT31;18065;55.876;9.830;2022-10-15T08:47:28;23.04;54.62
31443;SHT31;18065;55.876;9.830;2022-10-15T08:50:00;23.04;54.60
31443;SHT31;18065;55.876;9.830;2022-10-15T08:52:42;23.06;54.59
31443;SHT31;18065;55.876;9.830;2022-10-15T08:55:16;23.06;54.45
31443;SHT31;18065;55.876;9.830;2022-10-15T08:57:48;23.09;54.41
31443;SHT31;18065;55.876;9.830;2022-10-15T09:00:19;23.10;54.37
31443;SHT31;18065;55.876;9.830;2022-10-15T09:02:55;23.07;54.31
31443;SHT31;18065;55.876;9.830;2022-10-15T09:05:34;23.06;54.40
31443;SHT31;18065;55.876;9.830;2022-10-15T09:08:15;23.07;54.29
31443;SHT31;18065;55.876;9.830;2022-10-15T09:10:50;23.09;54.28
31443;SHT31;18065;55.876;9.830;2022-10-15T09:13:24;23.12;54.33
31443;SHT31;18065;55.876;9.830;2022-10-15T09:15:55;23.09;54.21
31443;SHT31;18065;55.876;9.830;2022-10-15T09:18:28;23.12;54.22
31443;SHT31;18065;55.876;9.830;2022-10-15T09:20:59;23.10;54.29
31443;SHT31;18065;55.876;9.830;2022-10-15T09:23:28;23.10;54.41
31443;SHT31;18065;55.876;9.830;2022-10-15T09:26:05;23.13;54.23
31443;SHT31;18065;55.876;9.830;2022-10-15T09:28:39;23.12;54.36
31443;SHT31;18065;55.876;9.830;2022-10-15T09:31:13;23.12;54.40
31443;SHT31;18065;55.876;9.830;2022-10-15T09:33:47;23.13;54.33
31443;SHT31;18065;55.876;9.830;2022-10-15T09:36:35;23.13;54.25
31443;SHT31;18065;55.876;9.830;2022-10-15T09:39:18;23.14;54.25
31443;SHT31;18065;55.876;9.830;2022-10-15T09:42:02;23.14;54.18
31443;SHT31;18065;55.876;9.830;2022-10-15T09:44:36;23.17;54.20
31443;SHT31;18065;55.876;9.830;2022-10-15T09:47:14;23.20;54.17
31443;SHT31;18065;55.876;9.830;2022-10-15T09:49:43;23.22;54.15
31443;SHT31;18065;55.876;9.830;2022-10-15T09:52:18;23.26;54.31
31443;SHT31;18065;55.876;9.830;2022-10-15T09:54:56;23.23;54.36
31443;SHT31;18065;55.876;9.830;2022-10-15T09:57:30;23.28;54.39
31443;SHT31;18065;55.876;9.830;2022-10-15T10:00:03;23.30;54.56
31443;SHT31;18065;55.876;9.830;2022-10-15T10:02:32;23.30;54.46
31443;SHT31;18065;55.876;9.830;2022-10-15T10:05:19;23.28;54.66
31443;SHT31;18065;55.876;9.830;2022-10-15T10:07:48;23.33;54.71
31443;SHT31;18065;55.876;9.830;2022-10-15T10:10:23;23.34;54.83
31443;SHT31;18065;55.876;9.830;2022-10-15T10:12:55;23.36;54.89
31443;SHT31;18065;55.876;9.830;2022-10-15T10:15:31;23.37;54.88
31443;SHT31;18065;55.876;9.830;2022-10-15T10:18:01;23.38;55.05
31443;SHT31;18065;55.876;9.830;2022-10-15T10:20:32;23.38;55.07
31443;SHT31;18065;55.876;9.830;2022-10-15T10:23:02;23.38;55.05
31443;SHT31;18065;55.876;9.830;2022-10-15T10:25:48;23.38;55.01
31443;SHT31;18065;55.876;9.830;2022-10-15T10:28:24;23.41;55.14
31443;SHT31;18065;55.876;9.830;2022-10-15T10:31:00;23.40;55.21
31443;SHT31;18065;55.876;9.830;2022-10-15T10:33:34;23.41;55.23
31443;SHT31;18065;55.876;9.830;2022-10-15T10:36:04;23.43;55.17
31443;SHT31;18065;55.876;9.830;2022-10-15T10:38:35;23.43;55.25
31443;SHT31;18065;55.876;9.830;2022-10-15T10:41:07;23.43;55.28
31443;SHT31;18065;55.876;9.830;2022-10-15T10:43:39;23.43;55.16
31443;SHT31;18065;55.876;9.830;2022-10-15T10:46:20;23.43;55.31
31443;SHT31;18065;55.876;9.830;2022-10-15T10:48:50;23.40;55.35
31443;SHT31;18065;55.876;9.830;2022-10-15T10:51:21;23.40;55.37
31443;SHT31;18065;55.876;9.830;2022-10-15T10:53:52;23.40;55.45
31443;SHT31;18065;55.876;9.830;2022-10-15T10:56:23;23.40;55.56
31443;SHT31;18065;55.876;9.830;2022-10-15T10:58:59;23.38;55.43
31443;SHT31;18065;55.876;9.830;2022-10-15T11:01:29;23.40;55.34
31443;SHT31;18065;55.876;9.830;2022-10-15T11:03:58;23.41;55.25
31443;SHT31;18065;55.876;9.830;2022-10-15T11:06:48;23.40;55.15
31443;SHT31;18065;55.876;9.830;2022-10-15T11:09:41;23.40;55.13
31443;SHT31;18065;55.876;9.830;2022-10-15T11:12:32;23.38;55.09
31443;SHT31;18065;55.876;9.830;2022-10-15T11:15:17;23.40;55.15
31443;SHT31;18065;55.876;9.830;2022-10-15T11:17:53;23.40;55.13
31443;SHT31;18065;55.876;9.830;2022-10-15T11:20:31;23.40;55.17
31443;SHT31;18065;55.876;9.830;2022-10-15T11:23:13;23.38;55.13
31443;SHT31;18065;55.876;9.830;2022-10-15T11:25:49;23.38;55.07
31443;SHT31;18065;55.876;9.830;2022-10-15T11:28:28;23.38;55.14
31443;SHT31;18065;55.876;9.830;2022-10-15T11:31:11;23.41;55.25
31443;SHT31;18065;55.876;9.830;2022-10-15T11:33:53;23.40;55.14
31443;SHT31;18065;55.876;9.830;2022-10-15T11:36:35;23.43;55.10
31443;SHT31;18065;55.876;9.830;2022-10-15T11:39:33;23.43;55.18
31443;SHT31;18065;55.876;9.830;2022-10-15T11:42:11;23.45;55.38
31443;SHT31;18065;55.876;9.830;2022-10-15T11:44:58;23.43;55.73
31443;SHT31;18065;55.876;9.830;2022-10-15T11:47:44;23.44;55.67
31443;SHT31;18065;55.876;9.830;2022-10-15T11:50:23;23.47;55.51
31443;SHT31;18065;55.876;9.830;2022-10-15T11:53:10;23.47;55.53
31443;SHT31;18065;55.876;9.830;2022-10-15T11:55:49;23.45;55.34
31443;SHT31;18065;55.876;9.830;2022-10-15T11:58:26;23.48;55.33
31443;SHT31;18065;55.876;9.830;2022-10-15T12:01:00;23.45;55.38
31443;SHT31;18065;55.876;9.830;2022-10-15T12:03:32;23.51;55.23
31443;SHT31;18065;55.876;9.830;2022-10-15T12:06:05;23.50;55.41
31443;SHT31;18065;55.876;9.830;2022-10-15T12:08:37;23.45;55.48
31443;SHT31;18065;55.876;9.830;2022-10-15T12:11:15;23.45;55.47
31443;SHT31;18065;55.876;9.830;2022-10-15T12:13:53;23.48;55.57
31443;SHT31;18065;55.876;9.830;2022-10-15T12:16:29;23.48;55.59
31443;SHT31;18065;55.876;9.830;2022-10-15T12:19:11;23.48;55.74
31443;SHT31;18065;55.876;9.830;2022-10-15T12:21:52;23.53;55.63
31443;SHT31;18065;55.876;9.830;2022-10-15T12:24:51;23.50;55.63
31443;SHT31;18065;55.876;9.830;2022-10-15T12:27:23;23.51;55.80
31443;SHT31;18065;55.876;9.830;2022-10-15T12:30:11;23.50;55.94
31443;SHT31;18065;55.876;9.830;2022-10-15T12:32:45;23.51;55.93
31443;SHT31;18065;55.876;9.830;2022-10-15T12:35:37;23.54;55.90
31443;SHT31;18065;55.876;9.830;2022-10-15T12:38:20;23.51;55.98
31443;SHT31;18065;55.876;9.830;2022-10-15T12:40:59;23.53;55.90
31443;SHT31;18065;55.876;9.830;2022-10-15T12:43:30;23.54;55.88
31443;SHT31;18065;55.876;9.830;2022-10-15T12:46:01;23.53;55.89
31443;SHT31;18065;55.876;9.830;2022-10-15T12:48:35;23.54;55.72
31443;SHT31;18065;55.876;9.830;2022-10-15T12:54:37;23.54;55.69
31443;SHT31;18065;55.876;9.830;2022-10-15T13:00:32;23.54;55.91
31443;SHT31;18065;55.876;9.830;2022-10-15T13:03:20;23.54;55.83
31443;SHT31;18065;55.876;9.830;2022-10-15T13:05:50;23.54;55.83
31443;SHT31;18065;55.876;9.830;2022-10-15T13:08:22;23.53;55.84
31443;SHT31;18065;55.876;9.830;2022-10-15T13:10:56;23.55;55.75
31443;SHT31;18065;55.876;9.830;2022-10-15T13:13:28;23.54;55.79
31443;SHT31;18065;55.876;9.830;2022-10-15T13:15:58;23.54;55.76
31443;SHT31;18065;55.876;9.830;2022-10-15T13:18:29;23.55;55.65
31443;SHT31;18065;55.876;9.830;2022-10-15T13:20:58;23.55;55.66
31443;SHT31;18065;55.876;9.830;2022-10-15T13:23:29;23.55;55.70
31443;SHT31;18065;55.876;9.830;2022-10-15T13:26:17;23.57;55.71
31443;SHT31;18065;55.876;9.830;2022-10-15T13:28:47;23.57;55.59
31443;SHT31;18065;55.876;9.830;2022-10-15T13:31:21;23.57;55.67
31443;SHT31;18065;55.876;9.830;2022-10-15T13:33:52;23.55;55.59
31443;SHT31;18065;55.876;9.830;2022-10-15T13:36:23;23.57;55.50
31443;SHT31;18065;55.876;9.830;2022-10-15T13:38:56;23.57;55.52
31443;SHT31;18065;55.876;9.830;2022-10-15T13:41:30;23.53;55.56
31443;SHT31;18065;55.876;9.830;2022-10-15T13:44:00;23.57;55.40
31443;SHT31;18065;55.876;9.830;2022-10-15T13:46:31;23.55;55.61
31443;SHT31;18065;55.876;9.830;2022-10-15T13:49:01;23.55;55.48
31443;SHT31;18065;55.876;9.830;2022-10-15T13:51:37;23.54;55.48
31443;SHT31;18065;55.876;9.830;2022-10-15T13:54:09;23.55;55.37
31443;SHT31;18065;55.876;9.830;2022-10-15T13:56:50;23.55;55.50
31443;SHT31;18065;55.876;9.830;2022-10-15T13:59:21;23.54;55.53
31443;SHT31;18065;55.876;9.830;2022-10-15T14:01:52;23.55;55.26
31443;SHT31;18065;55.876;9.830;2022-10-15T14:04:26;23.55;55.47
31443;SHT31;18065;55.876;9.830;2022-10-15T14:06:56;23.55;55.39
31443;SHT31;18065;55.876;9.830;2022-10-15T14:09:31;23.57;55.28
31443;SHT31;18065;55.876;9.830;2022-10-15T14:12:04;23.57;55.46
31443;SHT31;18065;55.876;9.830;2022-10-15T14:14:34;23.55;55.19
31443;SHT31;18065;55.876;9.830;2022-10-15T14:17:06;23.55;55.18
31443;SHT31;18065;55.876;9.830;2022-10-15T14:19:38;23.54;55.17
31443;SHT31;18065;55.876;9.830;2022-10-15T14:22:16;23.57;55.36
31443;SHT31;18065;55.876;9.830;2022-10-15T14:24:47;23.55;55.37
31443;SHT31;18065;55.876;9.830;2022-10-15T14:27:21;23.54;55.28
31443;SHT31;18065;55.876;9.830;2022-10-15T14:29:51;23.54;55.18
31443;SHT31;18065;55.876;9.830;2022-10-15T14:32:24;23.57;55.33
31443;SHT31;18065;55.876;9.830;2022-10-15T14:34:53;23.57;55.30
31443;SHT31;18065;55.876;9.830;2022-10-15T14:37:30;23.55;55.17
31443;SHT31;18065;55.876;9.830;2022-10-15T14:40:09;23.55;55.25
31443;SHT31;18065;55.876;9.830;2022-10-15T14:42:44;23.53;55.23
31443;SHT31;18065;55.876;9.830;2022-10-15T14:45:19;23.55;55.31
31443;SHT31;18065;55.876;9.830;2022-10-15T14:47:50;23.54;55.23
31443;SHT31;18065;55.876;9.830;2022-10-15T14:50:22;23.54;55.16
31443;SHT31;18065;55.876;9.830;2022-10-15T14:52:53;23.55;55.21
31443;SHT31;18065;55.876;9.830;2022-10-15T14:55:27;23.53;55.25
31443;SHT31;18065;55.876;9.830;2022-10-15T14:58:01;23.54;55.03
31443;SHT31;18065;55.876;9.830;2022-10-15T15:00:38;23.53;55.10
31443;SHT31;18065;55.876;9.830;2022-10-15T15:03:13;23.57;55.28
31443;SHT31;18065;55.876;9.830;2022-10-15T15:05:44;23.54;55.28
31443;SHT31;18065;55.876;9.830;2022-10-15T15:08:13;23.55;55.29
31443;SHT31;18065;55.876;9.830;2022-10-15T15:10:42;23.54;55.35
31443;SHT31;18065;55.876;9.830;2022-10-15T15:13:18;23.54;55.31
31443;SHT31;18065;55.876;9.830;2022-10-15T15:15:47;23.57;55.34
31443;SHT31;18065;55.876;9.830;2022-10-15T15:18:17;23.57;55.36
31443;SHT31;18065;55.876;9.830;2022-10-15T15:20:46;23.55;55.41
31443;SHT31;18065;55.876;9.830;2022-10-15T15:23:18;23.58;55.67
31443;SHT31;18065;55.876;9.830;2022-10-15T15:25:47;23.57;55.85
31443;SHT31;18065;55.876;9.830;2022-10-15T15:28:21;23.57;55.96
31443;SHT31;18065;55.876;9.830;2022-10-15T15:30:55;23.61;55.84
31443;SHT31;18065;55.876;9.830;2022-10-15T15:33:25;23.57;56.00
31443;SHT31;18065;55.876;9.830;2022-10-15T15:35:59;23.54;56.02
31443;SHT31;18065;55.876;9.830;2022-10-15T15:38:29;23.57;55.96
31443;SHT31;18065;55.876;9.830;2022-10-15T15:41:00;23.57;56.10
31443;SHT31;18065;55.876;9.830;2022-10-15T15:43:33;23.57;56.07
31443;SHT31;18065;55.876;9.830;2022-10-15T15:46:02;23.57;56.11
31443;SHT31;18065;55.876;9.830;2022-10-15T15:48:31;23.57;56.19
31443;SHT31;18065;55.876;9.830;2022-10-15T15:51:01;23.58;56.21
31443;SHT31;18065;55.876;9.830;2022-10-15T15:53:31;23.57;56.13
31443;SHT31;18065;55.876;9.830;2022-10-15T15:56:00;23.57;56.22
31443;SHT31;18065;55.876;9.830;2022-10-15T15:58:29;23.57;56.21
31443;SHT31;18065;55.876;9.830;2022-10-15T16:01:00;23.59;56.20
31443;SHT31;18065;55.876;9.830;2022-10-15T16:03:29;23.58;56.24
31443;SHT31;18065;55.876;9.830;2022-10-15T16:05:57;23.59;56.18
31443;SHT31;18065;55.876;9.830;2022-10-15T16:08:26;23.58;56.23
31443;SHT31;18065;55.876;9.830;2022-10-15T16:10:56;23.58;56.26
31443;SHT31;18065;55.876;9.830;2022-10-15T16:13:28;23.57;56.19
31443;SHT31;18065;55.876;9.830;2022-10-15T16:15:56;23.59;56.21
31443;SHT31;18065;55.876;9.830;2022-10-15T16:18:28;23.59;56.32